createdAt,value
2022-08-05T00:00:55.688Z,22.30
2022-08-05T00:06:27.922Z,22.19
2022-08-05T00:11:35.194Z,21.75
2022-08-05T00:16:53.721Z,21.73
2022-08-05T00:21:58.261Z,21.78
2022-08-05T00:27:01.743Z,21.64
2022-08-05T00:32:12.895Z,21.93
2022-08-05T00:37:19.262Z,21.75
2022-08-05T00:42:32.400Z,21.72
2022-08-05T00:47:56.966Z,22.02
2022-08-05T00:52:59.626Z,21.55
2022-08-05T00:58:02.697Z,21.86
2022-08-05T01:03:08.212Z,21.84
2022-08-05T01:08:40.761Z,21.79
2022-08-05T01:13:58.030Z,21.79
2022-08-05T01:19:07.755Z,21.86
2022-08-05T01:24:25.738Z,21.75
2022-08-05T01:29:37.918Z,21.36
2022-08-05T01:34:49.817Z,20.94
2022-08-05T01:39:59.004Z,20.81
2022-08-05T01:45:04.276Z,20.89
2022-08-05T01:50:15.427Z,21.19
2022-08-05T01:55:20.750Z,21.22
2022-08-05T02:00:30.125Z,21.04
2022-08-05T02:05:36.529Z,21.12
2022-08-05T02:10:43.501Z,21.09
2022-08-05T02:15:51.738Z,21.11
2022-08-05T02:20:58.823Z,21.23
2022-08-05T02:26:04.520Z,21.05
2022-08-05T02:31:14.703Z,20.44
2022-08-05T02:36:19.597Z,20.26
2022-08-05T02:41:28.855Z,20.53
2022-08-05T02:46:58.741Z,20.25
2022-08-05T02:52:04.820Z,19.67
2022-08-05T02:58:10.258Z,19.53
2022-08-05T03:02:40.984Z,19.47
2022-08-05T03:08:06.838Z,19.97
2022-08-05T03:13:16.823Z,19.73
2022-08-05T03:18:29.830Z,19.65
2022-08-05T03:23:33.833Z,19.48
2022-08-05T03:28:38.445Z,19.35
2022-08-05T03:33:52.838Z,19.40
2022-08-05T03:38:56.070Z,19.32
2022-08-05T03:44:11.329Z,19.25
2022-08-05T03:49:15.854Z,18.91
2022-08-05T03:55:50.404Z,19.00
2022-08-05T03:59:55.047Z,18.80
2022-08-05T04:05:00.424Z,18.67
2022-08-05T04:10:04.094Z,18.96
2022-08-05T04:15:07.708Z,18.75
2022-08-05T04:20:20.446Z,18.52
2022-08-05T04:25:56.819Z,18.98
2022-08-05T04:30:48.968Z,18.64
2022-08-05T04:36:10.846Z,18.66
2022-08-05T04:41:16.645Z,19.07
2022-08-05T04:46:28.305Z,19.19
2022-08-05T04:51:32.873Z,18.66
2022-08-05T04:56:37.619Z,18.73
2022-08-05T05:02:35.320Z,18.29
2022-08-05T05:07:09.502Z,18.40
2022-08-05T05:12:12.446Z,18.81
2022-08-05T05:17:18.708Z,19.41
2022-08-05T05:22:27.674Z,18.94
2022-08-05T05:27:41.144Z,19.32
2022-08-05T05:32:44.814Z,19.81
2022-08-05T05:37:59.432Z,19.36
2022-08-05T05:43:03.465Z,20.10
2022-08-05T05:48:08.366Z,19.40
2022-08-05T05:53:21.021Z,18.47
2022-08-05T05:58:31.976Z,18.09
2022-08-05T06:03:53.678Z,18.00
2022-08-05T06:09:01.510Z,18.20
2022-08-05T06:14:06.357Z,18.11
2022-08-05T06:19:09.075Z,17.93
2022-08-05T06:24:16.870Z,17.87
2022-08-05T06:29:46.373Z,18.28
2022-08-05T06:34:51.201Z,18.69
2022-08-05T06:39:57.691Z,18.64
2022-08-05T06:45:00.413Z,18.26
2022-08-05T06:50:09.225Z,18.40
2022-08-05T06:55:21.561Z,18.27
2022-08-05T07:00:25.427Z,18.36
2022-08-05T07:05:37.751Z,18.74
2022-08-05T07:10:53.364Z,18.57
2022-08-05T07:17:56.402Z,18.76
2022-08-05T07:22:00.323Z,18.89
2022-08-05T07:27:02.803Z,18.48
2022-08-05T07:32:06.547Z,18.76
2022-08-05T07:37:11.596Z,18.95
2022-08-05T07:42:16.001Z,18.40
2022-08-05T07:47:19.062Z,18.71
2022-08-05T07:52:28.535Z,18.51
2022-08-05T07:57:51.390Z,17.89
2022-08-05T08:03:14.862Z,17.78
2022-08-05T08:08:19.852Z,18.39
2022-08-05T08:13:29.204Z,18.36
2022-08-05T08:18:32.236Z,18.22
2022-08-05T08:24:03.015Z,18.01
2022-08-05T08:29:09.746Z,17.60
2022-08-05T08:34:30.323Z,17.93
2022-08-05T08:39:37.480Z,17.80
2022-08-05T08:45:16.822Z,17.52
2022-08-05T08:50:31.952Z,17.60
2022-08-05T08:55:32.206Z,17.68
2022-08-05T09:00:54.425Z,17.85
2022-08-05T09:06:08.637Z,17.58
2022-08-05T09:11:15.708Z,17.40
2022-08-05T09:16:20.453Z,17.14
2022-08-05T09:22:23.457Z,16.92
2022-08-05T09:26:52.112Z,17.13
2022-08-05T09:32:42.353Z,17.55
2022-08-05T09:38:12.808Z,17.41
2022-08-05T09:42:53.061Z,17.62
2022-08-05T09:47:58.032Z,17.39
2022-08-05T09:53:01.383Z,17.16
2022-08-05T09:58:11.700Z,17.24
2022-08-05T10:03:15.820Z,17.14
2022-08-05T10:08:37.431Z,17.39
2022-08-05T10:13:47.175Z,17.32
2022-08-05T10:18:52.285Z,17.42
2022-08-05T10:23:59.824Z,17.64
2022-08-05T10:29:03.765Z,17.33
2022-08-05T10:34:09.043Z,17.21
2022-08-05T10:39:24.586Z,17.46
2022-08-05T10:44:37.879Z,17.46
2022-08-05T10:50:20.678Z,17.62
2022-08-05T10:55:25.947Z,17.92
2022-08-05T11:00:30.627Z,17.89
2022-08-05T11:05:35.257Z,17.62
2022-08-05T11:10:50.300Z,17.91
2022-08-05T11:16:33.825Z,17.56
2022-08-05T11:21:49.466Z,17.75
2022-08-05T11:27:45.833Z,17.59
2022-08-05T11:33:43.849Z,18.03
2022-08-05T11:38:55.760Z,18.08
2022-08-05T11:44:07.236Z,17.83
2022-08-05T11:49:14.565Z,18.09
2022-08-05T11:54:33.753Z,18.10
2022-08-05T11:59:41.207Z,17.73
2022-08-05T12:04:59.330Z,18.16
2022-08-05T12:10:06.394Z,18.19
2022-08-05T12:15:20.240Z,18.31
2022-08-05T12:20:39.314Z,18.47
2022-08-05T12:25:57.258Z,18.37
2022-08-05T12:31:02.335Z,18.25
2022-08-05T12:36:08.463Z,18.82
2022-08-05T12:41:14.217Z,18.64
2022-08-05T12:46:26.424Z,18.52
2022-08-05T12:52:13.080Z,19.09
2022-08-05T12:56:58.417Z,18.96
2022-08-05T13:02:07.814Z,19.68
2022-08-05T13:07:15.879Z,19.48
2022-08-05T13:12:22.876Z,20.01
2022-08-05T13:17:41.748Z,19.83
2022-08-05T13:22:51.273Z,20.11
2022-08-05T13:27:57.327Z,20.40
2022-08-05T13:33:02.767Z,20.72
2022-08-05T13:38:05.903Z,20.81
2022-08-05T13:43:12.257Z,20.91
2022-08-05T13:48:57.792Z,20.64
2022-08-05T13:53:48.086Z,20.85
2022-08-05T13:58:53.251Z,20.38
2022-08-05T14:04:14.322Z,20.80
2022-08-05T14:09:17.802Z,20.86
2022-08-05T14:14:30.872Z,21.33
2022-08-05T14:19:55.258Z,21.41
2022-08-05T14:24:59.106Z,21.33
2022-08-05T14:30:03.190Z,21.06
2022-08-05T14:35:10.705Z,21.12
2022-08-05T14:40:16.759Z,20.73
2022-08-05T14:45:21.308Z,20.31
2022-08-05T14:50:25.258Z,20.32
2022-08-05T14:55:39.592Z,20.35
2022-08-05T15:00:59.570Z,20.19
2022-08-05T15:06:12.858Z,20.81
2022-08-05T15:11:18.363Z,21.03
2022-08-05T15:16:23.525Z,21.13
2022-08-05T15:21:26.364Z,21.15
2022-08-05T15:26:33.250Z,20.58
2022-08-05T15:31:37.360Z,21.12
2022-08-05T15:36:40.612Z,20.88
2022-08-05T15:41:57.651Z,20.91
2022-08-05T15:47:04.232Z,21.03
2022-08-05T15:52:16.238Z,20.90
2022-08-05T15:57:19.846Z,21.03
2022-08-05T16:02:25.501Z,21.14
2022-08-05T16:07:31.754Z,21.29
2022-08-05T16:12:34.975Z,21.14
2022-08-05T16:17:39.069Z,21.14
2022-08-05T16:22:41.916Z,21.20
2022-08-05T16:28:00.850Z,21.30
2022-08-05T16:33:08.792Z,21.35
2022-08-05T16:38:21.873Z,21.22
2022-08-05T16:43:30.115Z,20.91
2022-08-05T16:48:35.575Z,20.84
2022-08-05T16:54:04.366Z,21.04
2022-08-05T16:59:08.149Z,21.32
2022-08-05T17:04:12.769Z,20.86
2022-08-05T17:09:17.994Z,20.81
2022-08-05T17:14:34.387Z,20.82
2022-08-05T17:19:45.691Z,20.72
2022-08-05T17:24:57.957Z,20.49
2022-08-05T17:30:02.713Z,20.33
2022-08-05T17:35:08.164Z,20.46
2022-08-05T17:40:16.264Z,20.55
2022-08-05T17:45:21.875Z,20.33
2022-08-05T17:50:30.339Z,20.20
2022-08-05T17:55:39.746Z,20.14
2022-08-05T18:00:47.719Z,19.98
2022-08-05T18:05:54.781Z,19.84
2022-08-05T18:11:04.759Z,19.80
2022-08-05T18:16:09.538Z,19.59
2022-08-05T18:21:21.182Z,19.55
2022-08-05T18:26:29.313Z,19.51
2022-08-05T18:31:35.450Z,19.23
2022-08-05T18:36:39.998Z,19.09
2022-08-05T18:41:56.462Z,18.99
2022-08-05T18:47:05.067Z,18.83
2022-08-05T18:52:32.938Z,18.70
2022-08-05T18:57:49.995Z,18.58
2022-08-05T19:02:56.332Z,18.46
2022-08-05T19:08:02.715Z,18.30
2022-08-05T19:13:05.569Z,18.11
2022-08-05T19:18:10.762Z,18.10
2022-08-05T19:24:07.209Z,17.91
2022-08-05T19:28:47.395Z,17.81
2022-08-05T19:33:56.357Z,17.75
2022-08-05T19:39:01.952Z,17.74
2022-08-05T19:44:13.059Z,17.59
2022-08-05T19:49:17.785Z,17.64
2022-08-05T19:54:29.695Z,17.50
2022-08-05T19:59:54.000Z,17.25
2022-08-05T20:04:58.747Z,17.10
2022-08-05T20:10:04.843Z,17.14
2022-08-05T20:15:15.779Z,16.95
2022-08-05T20:20:38.770Z,16.83
2022-08-05T20:25:42.835Z,16.78
2022-08-05T20:30:45.599Z,16.63
2022-08-05T20:35:50.642Z,16.55
2022-08-05T20:40:55.330Z,16.54
2022-08-05T20:46:00.223Z,16.39
2022-08-05T20:51:08.380Z,16.36
2022-08-05T20:56:12.609Z,16.36
2022-08-05T21:01:15.399Z,16.36
2022-08-05T21:06:27.500Z,16.11
2022-08-05T21:12:10.962Z,16.07
2022-08-05T21:16:55.289Z,16.06
2022-08-05T21:21:58.026Z,15.97
2022-08-05T21:27:02.153Z,15.95
2022-08-05T21:32:05.802Z,15.86
2022-08-05T21:37:09.011Z,15.86
2022-08-05T21:42:40.985Z,15.80
2022-08-05T21:47:56.124Z,15.72
2022-08-05T21:53:04.369Z,15.77
2022-08-05T21:58:10.213Z,15.73
2022-08-05T22:03:15.406Z,15.71
2022-08-05T22:08:23.986Z,15.56
2022-08-05T22:14:18.277Z,15.40
2022-08-05T22:18:50.907Z,15.33
2022-08-05T22:24:13.437Z,15.25
2022-08-05T22:29:35.886Z,15.17
2022-08-05T22:34:38.698Z,15.18
2022-08-05T22:39:43.422Z,14.97
2022-08-05T22:44:53.522Z,14.83
2022-08-05T22:50:21.777Z,14.83
2022-08-05T22:55:24.473Z,14.82
2022-08-05T23:00:30.182Z,14.77
2022-08-05T23:05:36.086Z,14.68
2022-08-05T23:10:39.278Z,14.59
2022-08-05T23:15:43.393Z,14.53
2022-08-05T23:20:52.927Z,14.46
2022-08-05T23:25:55.723Z,14.33
2022-08-05T23:31:16.100Z,14.59
2022-08-05T23:36:20.611Z,14.29
2022-08-05T23:41:23.371Z,14.33
2022-08-05T23:46:28.067Z,14.31
2022-08-05T23:51:52.621Z,14.28
2022-08-05T23:57:03.170Z,14.24
